sensor_id;sensor_type;location;lat;lon;timestamp;pressure;altitude;pressure_sealevel;temperature;humidity
7441;BME280;29616;51.950;8.572;2023-02-28T00:00:26;101490.63;;;-1.30;100.00
7441;BME280;29616;51.950;8.572;2023-02-28T00:02:58;101473.88;;;-1.38;100.00
7441;BME280;29616;51.950;8.572;2023-02-28T00:05:28;101490.38;;;-1.20;100.00
7441;BME280;29616;51.950;8.572;2023-02-28T00:07:56;101482.63;;;-1.31;100.00
7441;BME280;29616;51.950;8.572;2023-02-28T00:10:26;101484.69;;;-1.41;100.00
7441;BME280;29616;51.950;8.572;2023-02-28T00:12:59;101485.97;;;-1.54;100.00
7441;BME280;29616;51.950;8.572;2023-02-28T00:15:29;101483.38;;;-1.57;100.00
7441;BME280;29616;51.950;8.572;2023-02-28T00:18:00;101495.13;;;-1.61;100.00
7441;BME280;29616;51.950;8.572;2023-02-28T00:20:29;101483.28;;;-1.54;100.00
7441;BME280;29616;51.950;8.572;2023-02-28T00:22:57;101496.00;;;-1.60;100.00
7441;BME280;29616;51.950;8.572;2023-02-28T00:25:25;101491.56;;;-1.61;100.00
7441;BME280;29616;51.950;8.572;2023-02-28T00:27:55;101494.00;;;-1.54;100.00
7441;BME280;29616;51.950;8.572;2023-02-28T00:30:23;101487.97;;;-1.60;100.00
7441;BME280;29616;51.950;8.572;2023-02-28T00:32:54;101502.63;;;-1.43;100.00
7441;BME280;29616;51.950;8.572;2023-02-28T00:35:25;101500.00;;;-1.44;100.00
7441;BME280;29616;51.950;8.572;2023-02-28T00:37:56;101495.47;;;-1.42;100.00
7441;BME280;29616;51.950;8.572;2023-02-28T00:40:24;101502.63;;;-1.43;100.00
7441;BME280;29616;51.950;8.572;2023-02-28T00:42:55;101501.66;;;-1.40;100.00
7441;BME280;29616;51.950;8.572;2023-02-28T00:45:24;101504.31;;;-1.39;100.00
7441;BME280;29616;51.950;8.572;2023-02-28T00:47:54;101488.97;;;-1.34;100.00
7441;BME280;29616;51.950;8.572;2023-02-28T00:50:24;101493.06;;;-1.20;100.00
7441;BME280;29616;51.950;8.572;2023-02-28T00:52:56;101482.22;;;-1.17;100.00
7441;BME280;29616;51.950;8.572;2023-02-28T00:55:26;101493.09;;;-1.22;100.00
7441;BME280;29616;51.950;8.572;2023-02-28T00:57:54;101500.06;;;-1.16;100.00
7441;BME280;29616;51.950;8.572;2023-02-28T01:00:24;101497.94;;;-1.05;100.00
7441;BME280;29616;51.950;8.572;2023-02-28T01:02:52;101504.06;;;-1.00;100.00
7441;BME280;29616;51.950;8.572;2023-02-28T01:05:23;101497.91;;;-1.04;100.00
7441;BME280;29616;51.950;8.572;2023-02-28T01:07:52;101492.34;;;-0.98;100.00
7441;BME280;29616;51.950;8.572;2023-02-28T01:10:22;101490.72;;;-1.03;100.00
7441;BME280;29616;51.950;8.572;2023-02-28T01:12:51;101487.06;;;-1.01;100.00
7441;BME280;29616;51.950;8.572;2023-02-28T01:15:21;101497.22;;;-1.10;100.00
7441;BME280;29616;51.950;8.572;2023-02-28T01:17:50;101496.78;;;-1.26;100.00
7441;BME280;29616;51.950;8.572;2023-02-28T01:20:18;101492.63;;;-1.36;100.00
7441;BME280;29616;51.950;8.572;2023-02-28T01:22:48;101490.84;;;-1.37;100.00
7441;BME280;29616;51.950;8.572;2023-02-28T01:25:18;101493.75;;;-1.45;100.00
7441;BME280;29616;51.950;8.572;2023-02-28T01:27:46;101495.72;;;-1.51;100.00
7441;BME280;29616;51.950;8.572;2023-02-28T01:30:16;101493.31;;;-1.60;100.00
7441;BME280;29616;51.950;8.572;2023-02-28T01:32:46;101489.16;;;-1.72;100.00
7441;BME280;29616;51.950;8.572;2023-02-28T01:35:15;101492.13;;;-1.81;100.00
7441;BME280;29616;51.950;8.572;2023-02-28T01:37:43;101492.81;;;-1.74;100.00
7441;BME280;29616;51.950;8.572;2023-02-28T01:40:13;101487.59;;;-1.79;100.00
7441;BME280;29616;51.950;8.572;2023-02-28T01:42:44;101485.81;;;-1.80;100.00
7441;BME280;29616;51.950;8.572;2023-02-28T01:45:22;101492.13;;;-1.81;100.00
7441;BME280;29616;51.950;8.572;2023-02-28T01:47:52;101493.72;;;-1.75;100.00
7441;BME280;29616;51.950;8.572;2023-02-28T01:50:24;101470.91;;;-1.90;100.00
7441;BME280;29616;51.950;8.572;2023-02-28T01:52:55;101485.38;;;-1.96;100.00
7441;BME280;29616;51.950;8.572;2023-02-28T01:55:24;101496.25;;;-2.02;100.00
7441;BME280;29616;51.950;8.572;2023-02-28T01:58:00;101494.41;;;-2.00;100.00
7441;BME280;29616;51.950;8.572;2023-02-28T02:00:30;101499.81;;;-2.01;100.00
7441;BME280;29616;51.950;8.572;2023-02-28T02:03:04;101487.44;;;-2.07;100.00
7441;BME280;29616;51.950;8.572;2023-02-28T02:05:36;101500.72;;;-2.02;100.00
7441;BME280;29616;51.950;8.572;2023-02-28T02:08:08;101499.09;;;-2.08;100.00
7441;BME280;29616;51.950;8.572;2023-02-28T02:10:40;101502.47;;;-2.00;100.00
7441;BME280;29616;51.950;8.572;2023-02-28T02:16:12;101491.09;;;-2.09;100.00
7441;BME280;29616;51.950;8.572;2023-02-28T02:18:43;101478.69;;;-2.13;100.00
7441;BME280;29616;51.950;8.572;2023-02-28T02:24:27;101503.31;;;-1.99;100.00
7441;BME280;29616;51.950;8.572;2023-02-28T02:33:27;101496.38;;;-2.06;100.00
7441;BME280;29616;51.950;8.572;2023-02-28T02:36:02;101473.69;;;-2.27;100.00
7441;BME280;29616;51.950;8.572;2023-02-28T02:38:38;101488.31;;;-2.40;100.00
7441;BME280;29616;51.950;8.572;2023-02-28T02:41:16;101478.84;;;-2.53;100.00
7441;BME280;29616;51.950;8.572;2023-02-28T02:43:49;101488.88;;;-2.63;100.00
7441;BME280;29616;51.950;8.572;2023-02-28T02:46:21;101489.09;;;-2.72;100.00
7441;BME280;29616;51.950;8.572;2023-02-28T02:48:52;101488.50;;;-2.84;100.00
7441;BME280;29616;51.950;8.572;2023-02-28T02:51:23;101471.72;;;-2.91;100.00
7441;BME280;29616;51.950;8.572;2023-02-28T02:53:54;101485.09;;;-2.91;100.00
7441;BME280;29616;51.950;8.572;2023-02-28T02:56:26;101491.09;;;-2.80;100.00
7441;BME280;29616;51.950;8.572;2023-02-28T02:59:00;101493.69;;;-2.77;100.00
7441;BME280;29616;51.950;8.572;2023-02-28T03:01:31;101492.81;;;-2.79;100.00
7441;BME280;29616;51.950;8.572;2023-02-28T03:04:02;101493.75;;;-2.80;100.00
7441;BME280;29616;51.950;8.572;2023-02-28T03:06:34;101493.13;;;-2.91;100.00
7441;BME280;29616;51.950;8.572;2023-02-28T03:09:04;101493.88;;;-2.86;100.00
7441;BME280;29616;51.950;8.572;2023-02-28T03:11:34;101496.44;;;-2.80;100.00
7441;BME280;29616;51.950;8.572;2023-02-28T03:14:10;101501.56;;;-2.71;100.00
7441;BME280;29616;51.950;8.572;2023-02-28T03:16:59;101497.16;;;-2.73;100.00
7441;BME280;29616;51.950;8.572;2023-02-28T03:19:44;101496.91;;;-2.63;100.00
7441;BME280;29616;51.950;8.572;2023-02-28T03:22:36;101492.81;;;-2.79;100.00
7441;BME280;29616;51.950;8.572;2023-02-28T03:25:13;101462.69;;;-2.87;100.00
7441;BME280;29616;51.950;8.572;2023-02-28T03:27:48;101493.44;;;-2.66;100.00
7441;BME280;29616;51.950;8.572;2023-02-28T03:30:24;101488.78;;;-2.60;100.00
7441;BME280;29616;51.950;8.572;2023-02-28T03:32:55;101483.59;;;-2.66;100.00
7441;BME280;29616;51.950;8.572;2023-02-28T03:35:29;101473.88;;;-2.70;100.00
7441;BME280;29616;51.950;8.572;2023-02-28T03:38:05;101449.06;;;-2.76;100.00
7441;BME280;29616;51.950;8.572;2023-02-28T03:40:36;101490.50;;;-2.56;100.00
7441;BME280;29616;51.950;8.572;2023-02-28T03:43:08;101490.78;;;-2.68;100.00
7441;BME280;29616;51.950;8.572;2023-02-28T03:45:39;101477.69;;;-2.80;100.00
7441;BME280;29616;51.950;8.572;2023-02-28T03:48:08;101485.81;;;-2.83;100.00
7441;BME280;29616;51.950;8.572;2023-02-28T03:50:40;101486.06;;;-2.95;100.00
7441;BME280;29616;51.950;8.572;2023-02-28T03:53:13;101474.72;;;-3.06;100.00
7441;BME280;29616;51.950;8.572;2023-02-28T03:55:46;101482.84;;;-3.09;100.00
7441;BME280;29616;51.950;8.572;2023-02-28T03:58:19;101482.47;;;-2.94;100.00
7441;BME280;29616;51.950;8.572;2023-02-28T04:00:52;101482.28;;;-2.85;100.00
7441;BME280;29616;51.950;8.572;2023-02-28T04:03:23;101488.09;;;-3.06;100.00
7441;BME280;29616;51.950;8.572;2023-02-28T04:05:53;101462.47;;;-3.16;100.00
7441;BME280;29616;51.950;8.572;2023-02-28T04:08:24;101489.22;;;-3.16;100.00
7441;BME280;29616;51.950;8.572;2023-02-28T04:10:54;101493.56;;;-3.11;100.00
7441;BME280;29616;51.950;8.572;2023-02-28T04:13:23;101489.09;;;-3.10;100.00
7441;BME280;29616;51.950;8.572;2023-02-28T04:15:53;101488.97;;;-3.04;100.00
7441;BME280;29616;51.950;8.572;2023-02-28T04:18:21;101494.19;;;-2.99;100.00
7441;BME280;29616;51.950;8.572;2023-02-28T04:20:49;101477.41;;;-3.06;100.00
7441;BME280;29616;51.950;8.572;2023-02-28T04:23:17;101484.41;;;-3.00;100.00
7441;BME280;29616;51.950;8.572;2023-02-28T04:25:48;101483.69;;;-3.09;100.00
7441;BME280;29616;51.950;8.572;2023-02-28T04:28:19;101486.47;;;-3.13;100.00
7441;BME280;29616;51.950;8.572;2023-02-28T04:30:54;101480.47;;;-3.24;100.00
7441;BME280;29616;51.950;8.572;2023-02-28T04:33:23;101474.09;;;-3.17;100.00
7441;BME280;29616;51.950;8.572;2023-02-28T04:36:00;101465.22;;;-3.19;100.00
7441;BME280;29616;51.950;8.572;2023-02-28T04:38:29;101476.13;;;-3.28;100.00
7441;BME280;29616;51.950;8.572;2023-02-28T04:40:59;101483.44;;;-3.38;100.00
7441;BME280;29616;51.950;8.572;2023-02-28T04:43:27;101486.44;;;-3.51;100.00
7441;BME280;29616;51.950;8.572;2023-02-28T04:46:00;101475.75;;;-3.53;100.00
7441;BME280;29616;51.950;8.572;2023-02-28T04:48:30;101474.69;;;-3.44;100.00
7441;BME280;29616;51.950;8.572;2023-02-28T04:51:00;101451.75;;;-3.54;100.00
7441;BME280;29616;51.950;8.572;2023-02-28T04:53:30;101455.50;;;-3.64;100.00
7441;BME280;29616;51.950;8.572;2023-02-28T04:56:00;101475.88;;;-3.59;100.00
7441;BME280;29616;51.950;8.572;2023-02-28T04:58:29;101478.59;;;-3.60;100.00
7441;BME280;29616;51.950;8.572;2023-02-28T05:01:01;101469.69;;;-3.59;100.00
7441;BME280;29616;51.950;8.572;2023-02-28T05:03:31;101476.75;;;-3.57;100.00
7441;BME280;29616;51.950;8.572;2023-02-28T05:06:00;101482.88;;;-3.52;100.00
7441;BME280;29616;51.950;8.572;2023-02-28T05:08:29;101488.97;;;-3.45;100.00
7441;BME280;29616;51.950;8.572;2023-02-28T05:11:01;101472.25;;;-3.55;100.00
7441;BME280;29616;51.950;8.572;2023-02-28T05:13:31;101466.13;;;-3.61;100.00
7441;BME280;29616;51.950;8.572;2023-02-28T05:16:02;101494.50;;;-3.54;100.00
7441;BME280;29616;51.950;8.572;2023-02-28T05:18:30;101490.53;;;-3.35;100.00
7441;BME280;29616;51.950;8.572;2023-02-28T05:20:58;101486.81;;;-3.28;100.00
7441;BME280;29616;51.950;8.572;2023-02-28T05:23:27;101489.25;;;-3.18;100.00
7441;BME280;29616;51.950;8.572;2023-02-28T05:25:57;101488.25;;;-3.12;100.00
7441;BME280;29616;51.950;8.572;2023-02-28T05:28:28;101497.06;;;-3.07;100.00
7441;BME280;29616;51.950;8.572;2023-02-28T05:30:58;101497.16;;;-3.12;100.00
7441;BME280;29616;51.950;8.572;2023-02-28T05:33:26;101493.44;;;-3.06;100.00
7441;BME280;29616;51.950;8.572;2023-02-28T05:35:57;101503.06;;;-2.96;100.00
7441;BME280;29616;51.950;8.572;2023-02-28T05:38:26;101502.06;;;-2.92;100.00
7441;BME280;29616;51.950;8.572;2023-02-28T05:40:57;101496.81;;;-2.96;100.00
7441;BME280;29616;51.950;8.572;2023-02-28T05:43:25;101498.66;;;-2.98;100.00
7441;BME280;29616;51.950;8.572;2023-02-28T05:45:56;101495.94;;;-2.97;100.00
7441;BME280;29616;51.950;8.572;2023-02-28T05:48:26;101501.41;;;-3.03;100.00
7441;BME280;29616;51.950;8.572;2023-02-28T05:50:56;101502.34;;;-3.04;100.00
7441;BME280;29616;51.950;8.572;2023-02-28T05:53:26;101501.44;;;-3.04;100.00
7441;BME280;29616;51.950;8.572;2023-02-28T05:55:56;101496.34;;;-3.15;100.00
7441;BME280;29616;51.950;8.572;2023-02-28T05:58:26;101487.31;;;-3.10;100.00
7441;BME280;29616;51.950;8.572;2023-02-28T06:00:58;101501.38;;;-3.01;100.00
7441;BME280;29616;51.950;8.572;2023-02-28T06:03:29;101501.44;;;-3.04;100.00
7441;BME280;29616;51.950;8.572;2023-02-28T06:05:58;101495.22;;;-3.05;100.00
7441;BME280;29616;51.950;8.572;2023-02-28T06:08:28;101490.88;;;-3.11;100.00
7441;BME280;29616;51.950;8.572;2023-02-28T06:10:56;101500.84;;;-3.17;100.00
7441;BME280;29616;51.950;8.572;2023-02-28T06:13:24;101510.59;;;-3.15;100.00
7441;BME280;29616;51.950;8.572;2023-02-28T06:15:53;101503.94;;;-2.97;100.00
7441;BME280;29616;51.950;8.572;2023-02-28T06:18:23;101507.34;;;-2.89;100.00
7441;BME280;29616;51.950;8.572;2023-02-28T06:20:52;101487.84;;;-2.94;100.00
7441;BME280;29616;51.950;8.572;2023-02-28T06:23:21;101509.88;;;-2.83;100.00
7441;BME280;29616;51.950;8.572;2023-02-28T06:25:51;101510.06;;;-2.92;100.00
7441;BME280;29616;51.950;8.572;2023-02-28T06:28:20;101511.91;;;-2.94;100.00
7441;BME280;29616;51.950;8.572;2023-02-28T06:30:48;101500.56;;;-3.03;100.00
7441;BME280;29616;51.950;8.572;2023-02-28T06:33:16;101519.94;;;-2.94;100.00
7441;BME280;29616;51.950;8.572;2023-02-28T06:35:49;101517.25;;;-2.94;100.00
7441;BME280;29616;51.950;8.572;2023-02-28T06:38:18;101518.31;;;-3.01;100.00
7441;BME280;29616;51.950;8.572;2023-02-28T06:40:53;101522.56;;;-2.92;100.00
7441;BME280;29616;51.950;8.572;2023-02-28T06:43:21;101525.88;;;-2.80;100.00
7441;BME280;29616;51.950;8.572;2023-02-28T06:45:54;101531.81;;;-2.69;100.00
7441;BME280;29616;51.950;8.572;2023-02-28T06:48:23;101534.25;;;-2.57;100.00
7441;BME280;29616;51.950;8.572;2023-02-28T06:51:03;101519.53;;;-2.39;100.00
7441;BME280;29616;51.950;8.572;2023-02-28T06:53:33;101530.44;;;-2.11;100.00
7441;BME280;29616;51.950;8.572;2023-02-28T06:56:04;101518.59;;;-2.03;100.00
7441;BME280;29616;51.950;8.572;2023-02-28T06:58:34;101530.03;;;-1.62;100.00
7441;BME280;29616;51.950;8.572;2023-02-28T07:01:03;101533.69;;;-1.34;100.00
7441;BME280;29616;51.950;8.572;2023-02-28T07:03:31;101510.16;;;-1.25;100.00
7441;BME280;29616;51.950;8.572;2023-02-28T07:06:02;101540.88;;;-0.76;100.00
7441;BME280;29616;51.950;8.572;2023-02-28T07:08:32;101539.72;;;-0.68;100.00
7441;BME280;29616;51.950;8.572;2023-02-28T07:11:03;101544.72;;;-0.55;100.00
7441;BME280;29616;51.950;8.572;2023-02-28T07:13:32;101553.06;;;-0.37;100.00
7441;BME280;29616;51.950;8.572;2023-02-28T07:16:03;101549.56;;;-0.13;100.00
7441;BME280;29616;51.950;8.572;2023-02-28T07:18:31;101554.66;;;-0.04;100.00
7441;BME280;29616;51.950;8.572;2023-02-28T07:21:03;101539.53;;;-0.08;100.00
7441;BME280;29616;51.950;8.572;2023-02-28T07:23:32;101541.84;;;0.05;100.00
7441;BME280;29616;51.950;8.572;2023-02-28T07:26:01;101553.66;;;0.25;100.00
7441;BME280;29616;51.950;8.572;2023-02-28T07:28:31;101560.56;;;0.32;100.00
7441;BME280;29616;51.950;8.572;2023-02-28T07:31:05;101562.41;;;0.56;100.00
7441;BME280;29616;51.950;8.572;2023-02-28T07:33:34;101563.91;;;0.88;100.00
7441;BME280;29616;51.950;8.572;2023-02-28T07:36:05;101563.19;;;1.08;100.00
7441;BME280;29616;51.950;8.572;2023-02-28T07:38:34;101565.41;;;1.20;100.00
7441;BME280;29616;51.950;8.572;2023-02-28T07:41:02;101566.06;;;1.27;100.00
7441;BME280;29616;51.950;8.572;2023-02-28T07:43:32;101555.81;;;3.41;100.00
7441;BME280;29616;51.950;8.572;2023-02-28T07:46:03;101554.28;;;6.52;100.00
7441;BME280;29616;51.950;8.572;2023-02-28T07:48:32;101553.47;;;7.78;100.00
7441;BME280;29616;51.950;8.572;2023-02-28T07:51:00;101542.81;;;8.02;100.00
7441;BME280;29616;51.950;8.572;2023-02-28T07:53:31;101542.16;;;8.52;100.00
7441;BME280;29616;51.950;8.572;2023-02-28T07:56:01;101543.50;;;8.59;100.00
7441;BME280;29616;51.950;8.572;2023-02-28T07:58:30;101542.63;;;8.84;100.00
7441;BME280;29616;51.950;8.572;2023-02-28T08:01:04;101545.31;;;9.72;91.26
7441;BME280;29616;51.950;8.572;2023-02-28T08:03:34;101536.47;;;10.41;67.49
7441;BME280;29616;51.950;8.572;2023-02-28T08:06:05;101536.44;;;11.11;60.58
7441;BME280;29616;51.950;8.572;2023-02-28T08:08:35;101544.25;;;10.93;65.73
7441;BME280;29616;51.950;8.572;2023-02-28T08:11:05;101542.06;;;11.20;67.48
7441;BME280;29616;51.950;8.572;2023-02-28T08:13:34;101541.38;;;10.94;63.48
7441;BME280;29616;51.950;8.572;2023-02-28T08:16:04;101513.66;;;11.10;56.68
7441;BME280;29616;51.950;8.572;2023-02-28T08:18:34;101546.06;;;10.81;60.75
7441;BME280;29616;51.950;8.572;2023-02-28T08:21:07;101535.59;;;10.75;52.97
7441;BME280;29616;51.950;8.572;2023-02-28T08:23:38;101538.91;;;11.03;56.65
7441;BME280;29616;51.950;8.572;2023-02-28T08:26:09;101511.34;;;10.36;52.08
7441;BME280;29616;51.950;8.572;2023-02-28T08:28:38;101482.47;;;8.99;55.43
7441;BME280;29616;51.950;8.572;2023-02-28T08:31:09;101548.09;;;9.59;55.98
7441;BME280;29616;51.950;8.572;2023-02-28T08:33:38;101549.84;;;10.33;53.94
7441;BME280;29616;51.950;8.572;2023-02-28T08:36:07;101549.97;;;9.95;52.94
7441;BME280;29616;51.950;8.572;2023-02-28T08:38:39;101553.09;;;10.38;52.57
7441;BME280;29616;51.950;8.572;2023-02-28T08:41:10;101537.34;;;10.42;52.13
7441;BME280;29616;51.950;8.572;2023-02-28T08:43:40;101535.88;;;10.49;51.24
7441;BME280;29616;51.950;8.572;2023-02-28T08:46:12;101545.75;;;10.62;51.34
7441;BME280;29616;51.950;8.572;2023-02-28T08:48:42;101551.53;;;10.81;50.55
7441;BME280;29616;51.950;8.572;2023-02-28T08:51:13;101552.00;;;11.21;49.66
7441;BME280;29616;51.950;8.572;2023-02-28T08:53:44;101544.31;;;10.22;48.98
7441;BME280;29616;51.950;8.572;2023-02-28T08:56:15;101465.97;;;8.11;51.14
7441;BME280;29616;51.950;8.572;2023-02-28T08:58:46;101559.06;;;7.63;52.87
7441;BME280;29616;51.950;8.572;2023-02-28T09:01:16;101545.22;;;6.67;55.42
7441;BME280;29616;51.950;8.572;2023-02-28T09:03:46;101566.84;;;7.41;53.99
7441;BME280;29616;51.950;8.572;2023-02-28T09:06:15;101558.50;;;7.15;56.27
7441;BME280;29616;51.950;8.572;2023-02-28T09:08:47;101553.91;;;7.44;56.15
7441;BME280;29616;51.950;8.572;2023-02-28T09:11:17;101562.16;;;7.14;56.96
7441;BME280;29616;51.950;8.572;2023-02-28T09:13:46;101558.38;;;6.59;57.48
7441;BME280;29616;51.950;8.572;2023-02-28T09:16:17;101545.84;;;6.27;60.00
7441;BME280;29616;51.950;8.572;2023-02-28T09:18:47;101561.63;;;6.50;59.70
7441;BME280;29616;51.950;8.572;2023-02-28T09:21:18;101552.63;;;6.20;61.37
7441;BME280;29616;51.950;8.572;2023-02-28T09:23:48;101535.44;;;6.19;62.52
7441;BME280;29616;51.950;8.572;2023-02-28T09:26:19;101552.44;;;7.24;61.13
7441;BME280;29616;51.950;8.572;2023-02-28T09:28:49;101519.50;;;6.72;61.54
7441;BME280;29616;51.950;8.572;2023-02-28T09:31:20;101539.03;;;6.93;61.47
7441;BME280;29616;51.950;8.572;2023-02-28T09:33:49;101546.97;;;6.82;62.05
7441;BME280;29616;51.950;8.572;2023-02-28T09:36:20;101548.47;;;6.58;64.20
7441;BME280;29616;51.950;8.572;2023-02-28T09:39:00;101566.97;;;6.22;70.32
7441;BME280;29616;51.950;8.572;2023-02-28T09:41:32;101557.88;;;6.23;69.21
7441;BME280;29616;51.950;8.572;2023-02-28T09:44:07;101569.56;;;6.23;68.85
7441;BME280;29616;51.950;8.572;2023-02-28T09:46:39;101564.34;;;6.04;72.01
7441;BME280;29616;51.950;8.572;2023-02-28T09:49:12;101562.66;;;6.18;71.86
7441;BME280;29616;51.950;8.572;2023-02-28T09:51:46;101563.47;;;6.20;73.49
7441;BME280;29616;51.950;8.572;2023-02-28T09:54:18;101564.78;;;6.13;74.49
7441;BME280;29616;51.950;8.572;2023-02-28T09:56:50;101551.69;;;5.89;74.45
7441;BME280;29616;51.950;8.572;2023-02-28T09:59:28;101581.00;;;6.14;76.88
7441;BME280;29616;51.950;8.572;2023-02-28T10:02:04;101567.59;;;7.00;75.39
7441;BME280;29616;51.950;8.572;2023-02-28T10:04:42;101568.03;;;6.79;79.84
7441;BME280;29616;51.950;8.572;2023-02-28T10:07:18;101557.13;;;8.06;73.25
7441;BME280;29616;51.950;8.572;2023-02-28T10:09:52;101570.09;;;8.15;68.54
7441;BME280;29616;51.950;8.572;2023-02-28T10:12:21;101574.72;;;8.00;70.20
7441;BME280;29616;51.950;8.572;2023-02-28T10:14:51;101552.91;;;7.73;67.95
7441;BME280;29616;51.950;8.572;2023-02-28T10:17:22;101565.06;;;7.68;67.87
7441;BME280;29616;51.950;8.572;2023-02-28T10:19:56;101575.09;;;7.39;72.31
7441;BME280;29616;51.950;8.572;2023-02-28T10:22:28;101569.75;;;7.23;77.80
7441;BME280;29616;51.950;8.572;2023-02-28T10:24:59;101548.69;;;7.13;75.58
7441;BME280;29616;51.950;8.572;2023-02-28T10:27:33;101567.84;;;6.82;90.97
7441;BME280;29616;51.950;8.572;2023-02-28T10:30:02;101561.69;;;8.05;78.96
7441;BME280;29616;51.950;8.572;2023-02-28T10:32:32;101559.16;;;8.02;82.98
7441;BME280;29616;51.950;8.572;2023-02-28T10:35:10;101547.66;;;8.65;78.57
7441;BME280;29616;51.950;8.572;2023-02-28T10:37:43;101555.13;;;8.48;74.94
7441;BME280;29616;51.950;8.572;2023-02-28T10:40:27;101548.75;;;9.50;75.92
7441;BME280;29616;51.950;8.572;2023-02-28T10:43:00;101560.47;;;9.89;68.43
7441;BME280;29616;51.950;8.572;2023-02-28T10:45:29;101560.97;;;9.70;70.57
7441;BME280;29616;51.950;8.572;2023-02-28T10:48:02;101555.84;;;10.02;69.20
7441;BME280;29616;51.950;8.572;2023-02-28T10:50:34;101555.34;;;8.45;75.23
7441;BME280;29616;51.950;8.572;2023-02-28T10:53:16;101550.03;;;10.06;66.98
7441;BME280;29616;51.950;8.572;2023-02-28T10:55:53;101543.28;;;10.70;66.18
7441;BME280;29616;51.950;8.572;2023-02-28T10:58:28;101525.25;;;11.58;61.99
7441;BME280;29616;51.950;8.572;2023-02-28T11:00:58;101523.59;;;10.54;61.63
7441;BME280;29616;51.950;8.572;2023-02-28T11:03:29;101551.00;;;9.82;65.19
7441;BME280;29616;51.950;8.572;2023-02-28T11:05:58;101529.06;;;9.70;62.87
7441;BME280;29616;51.950;8.572;2023-02-28T11:08:32;101522.56;;;9.60;65.76
7441;BME280;29616;51.950;8.572;2023-02-28T11:11:04;101535.22;;;9.98;59.20
7441;BME280;29616;51.950;8.572;2023-02-28T11:13:36;101512.09;;;10.38;57.97
7441;BME280;29616;51.950;8.572;2023-02-28T11:16:06;101542.25;;;10.60;55.87
7441;BME280;29616;51.950;8.572;2023-02-28T11:18:40;101539.13;;;10.30;57.46
7441;BME280;29616;51.950;8.572;2023-02-28T11:21:15;101539.47;;;10.84;57.93
7441;BME280;29616;51.950;8.572;2023-02-28T11:23:44;101529.72;;;11.04;56.19
7441;BME280;29616;51.950;8.572;2023-02-28T11:26:14;101528.13;;;10.66;56.29
7441;BME280;29616;51.950;8.572;2023-02-28T11:28:43;101502.03;;;10.73;55.34
7441;BME280;29616;51.950;8.572;2023-02-28T11:31:18;101512.56;;;11.35;53.67
7441;BME280;29616;51.950;8.572;2023-02-28T11:33:51;101524.03;;;11.62;51.84
7441;BME280;29616;51.950;8.572;2023-02-28T11:36:22;101528.13;;;11.68;50.43
7441;BME280;29616;51.950;8.572;2023-02-28T11:38:54;101517.03;;;10.33;51.31
7441;BME280;29616;51.950;8.572;2023-02-28T11:41:34;101527.81;;;9.38;53.34
7441;BME280;29616;51.950;8.572;2023-02-28T11:44:12;101531.84;;;8.70;55.17
7441;BME280;29616;51.950;8.572;2023-02-28T11:46:50;101530.63;;;8.74;57.54
7441;BME280;29616;51.950;8.572;2023-02-28T11:49:24;101524.84;;;8.66;58.19
7441;BME280;29616;51.950;8.572;2023-02-28T11:52:00;101518.69;;;7.69;60.97
7441;BME280;29616;51.950;8.572;2023-02-28T11:54:35;101511.38;;;9.02;61.09
7441;BME280;29616;51.950;8.572;2023-02-28T11:57:16;101519.66;;;9.74;61.28
7441;BME280;29616;51.950;8.572;2023-02-28T11:59:53;101480.81;;;9.58;59.00
7441;BME280;29616;51.950;8.572;2023-02-28T12:02:28;101491.47;;;10.34;57.96
7441;BME280;29616;51.950;8.572;2023-02-28T12:05:10;101496.19;;;9.96;59.10
7441;BME280;29616;51.950;8.572;2023-02-28T12:07:47;101501.25;;;9.65;61.61
7441;BME280;29616;51.950;8.572;2023-02-28T12:10:21;101490.63;;;9.61;60.10
7441;BME280;29616;51.950;8.572;2023-02-28T12:13:04;101485.44;;;10.18;60.36
7441;BME280;29616;51.950;8.572;2023-02-28T12:15:44;101493.13;;;10.82;59.65
7441;BME280;29616;51.950;8.572;2023-02-28T12:18:26;101480.47;;;11.48;53.92
7441;BME280;29616;51.950;8.572;2023-02-28T12:21:01;101402.72;;;10.84;53.76
7441;BME280;29616;51.950;8.572;2023-02-28T12:23:47;101480.91;;;10.75;53.98
7441;BME280;29616;51.950;8.572;2023-02-28T12:26:18;101470.38;;;10.82;52.84
7441;BME280;29616;51.950;8.572;2023-02-28T12:28:53;101489.44;;;11.17;50.87
7441;BME280;29616;51.950;8.572;2023-02-28T12:31:23;101472.00;;;11.62;48.26
7441;BME280;29616;51.950;8.572;2023-02-28T12:33:59;101468.53;;;10.13;52.37
7441;BME280;29616;51.950;8.572;2023-02-28T12:36:30;101454.94;;;11.47;50.93
7441;BME280;29616;51.950;8.572;2023-02-28T12:39:02;101455.97;;;12.00;49.54
7441;BME280;29616;51.950;8.572;2023-02-28T12:41:36;101466.78;;;11.37;49.73
7441;BME280;29616;51.950;8.572;2023-02-28T12:44:11;101458.41;;;10.72;50.70
7441;BME280;29616;51.950;8.572;2023-02-28T12:46:42;101455.75;;;10.59;52.57
7441;BME280;29616;51.950;8.572;2023-02-28T12:49:16;101429.84;;;11.96;51.15
7441;BME280;29616;51.950;8.572;2023-02-28T12:51:46;101436.63;;;12.45;49.23
7441;BME280;29616;51.950;8.572;2023-02-28T12:54:21;101460.94;;;12.06;48.35
7441;BME280;29616;51.950;8.572;2023-02-28T12:56:56;101426.28;;;12.16;47.16
7441;BME280;29616;51.950;8.572;2023-02-28T12:59:30;101440.91;;;12.58;47.08
7441;BME280;29616;51.950;8.572;2023-02-28T13:05:38;101439.28;;;11.49;49.91
7441;BME280;29616;51.950;8.572;2023-02-28T13:08:47;101431.34;;;11.35;48.39
7441;BME280;29616;51.950;8.572;2023-02-28T13:11:27;101389.78;;;11.84;47.82
7441;BME280;29616;51.950;8.572;2023-02-28T13:14:00;101426.66;;;12.44;46.64
7441;BME280;29616;51.950;8.572;2023-02-28T13:16:47;101428.38;;;12.65;46.48
7441;BME280;29616;51.950;8.572;2023-02-28T13:19:20;101412.63;;;12.58;45.97
7441;BME280;29616;51.950;8.572;2023-02-28T13:21:50;101409.34;;;12.64;45.87
7441;BME280;29616;51.950;8.572;2023-02-28T13:27:34;101429.66;;;11.66;48.14
7441;BME280;29616;51.950;8.572;2023-02-28T13:35:43;101436.31;;;11.19;48.85
7441;BME280;29616;51.950;8.572;2023-02-28T13:38:31;101436.41;;;11.73;48.95
7441;BME280;29616;51.950;8.572;2023-02-28T13:44:10;101417.84;;;12.61;47.83
7441;BME280;29616;51.950;8.572;2023-02-28T13:49:33;101422.75;;;10.95;50.97
7441;BME280;29616;51.950;8.572;2023-02-28T13:52:09;101418.44;;;11.80;49.54